Time;durP1;ratioP1;P1;durP2;ratioP2;P2;SDS_P1;SDS_P2;PMS_P1;PMS_P2;Temp;Humidity;BMP_temperature;BMP_pressure;BME280_temperature;BME280_humidity;BME280_pressure;Samples;Min_cycle;Max_cycle;Signal;HPM_P1;HPM_P2
2022/01/04 00:00:16;;;;;;;24.95;8.15;;;8.00;99.90;;;;;;5060243;28;20044;-67
2022/01/04 00:02:43;;;;;;;21.88;9.55;;;8.00;99.90;;;;;;5060511;28;20147;-67
2022/01/04 00:05:10;;;;;;;25.33;8.73;;;8.00;99.90;;;;;;5060285;28;21725;-67
2022/01/04 00:07:36;;;;;;;20.67;8.30;;;7.90;99.90;;;;;;5059342;28;20033;-67
2022/01/04 00:10:03;;;;;;;27.95;9.05;;;8.00;99.90;;;;;;5068947;28;20043;-67
2022/01/04 00:15:13;;;;;;;22.58;8.93;;;8.00;99.90;;;;;;5062102;28;20058;-67
2022/01/04 00:17:39;;;;;;;15.95;7.55;;;8.00;99.90;;;;;;5062039;28;20044;-67
2022/01/04 00:20:06;;;;;;;26.42;7.80;;;8.00;99.90;;;;;;5062594;28;20512;-67
2022/01/04 00:22:32;;;;;;;25.98;7.78;;;8.00;99.90;;;;;;5060163;28;20085;-67
2022/01/04 00:24:57;;;;;;;27.13;8.40;;;8.10;99.90;;;;;;5046642;28;20052;-67
2022/01/04 00:27:23;;;;;;;18.17;8.07;;;8.10;99.90;;;;;;5062432;28;20400;-67
2022/01/04 00:29:50;;;;;;;22.23;8.30;;;8.10;99.90;;;;;;5063356;28;20051;-67
2022/01/04 00:32:15;;;;;;;26.13;8.30;;;8.10;99.90;;;;;;5058425;28;20109;-67
2022/01/04 00:34:41;;;;;;;24.45;8.27;;;8.10;99.90;;;;;;5060904;28;20044;-67
2022/01/04 00:37:07;;;;;;;23.92;8.10;;;8.10;99.90;;;;;;5061898;28;20298;-67
2022/01/04 00:39:34;;;;;;;24.23;7.85;;;8.10;99.90;;;;;;5061621;28;20163;-67
2022/01/04 00:42:00;;;;;;;24.23;8.43;;;8.10;99.90;;;;;;5059788;28;20709;-67
2022/01/04 00:44:26;;;;;;;23.10;8.85;;;8.00;99.90;;;;;;5059982;28;20408;-67
2022/01/04 00:46:52;;;;;;;22.13;7.90;;;8.10;99.90;;;;;;5061810;28;20067;-67
2022/01/04 00:49:20;;;;;;;26.40;8.30;;;8.20;99.90;;;;;;5063404;28;20048;-67
2022/01/04 00:51:50;;;;;;;20.23;7.55;;;8.20;99.90;;;;;;5062092;28;20029;-67
2022/01/04 00:54:16;;;;;;;20.48;7.30;;;8.20;99.90;;;;;;5062724;28;20060;-67
2022/01/04 00:56:44;;;;;;;26.17;8.48;;;8.30;99.90;;;;;;5061286;28;20473;-67
2022/01/04 00:59:09;;;;;;;26.33;9.45;;;8.30;99.90;;;;;;5064277;28;20048;-67
2022/01/04 01:01:36;;;;;;;27.73;9.50;;;8.40;99.90;;;;;;5065729;28;20499;-67
2022/01/04 01:04:03;;;;;;;23.67;9.05;;;8.30;99.90;;;;;;5059814;28;20056;-67
2022/01/04 01:06:29;;;;;;;30.20;9.70;;;8.40;99.90;;;;;;5064155;28;20492;-67
2022/01/04 01:08:54;;;;;;;21.17;9.07;;;8.40;99.90;;;;;;5062046;28;20033;-67
2022/01/04 01:11:20;;;;;;;29.73;10.30;;;8.40;99.90;;;;;;5060939;28;20631;-67
2022/01/04 01:13:47;;;;;;;30.67;8.90;;;8.40;99.90;;;;;;5062916;28;20037;-67
2022/01/04 01:16:13;;;;;;;23.92;8.90;;;8.30;99.90;;;;;;5062920;28;20063;-67
2022/01/04 01:18:38;;;;;;;27.13;9.00;;;8.30;99.90;;;;;;5061011;28;20737;-67
2022/01/04 01:21:06;;;;;;;26.58;9.02;;;8.30;99.90;;;;;;5059045;28;20054;-67
2022/01/04 01:23:32;;;;;;;20.65;8.45;;;8.30;99.90;;;;;;5061697;28;20032;-67
2022/01/04 01:25:59;;;;;;;21.15;8.52;;;8.30;99.90;;;;;;5056792;28;20048;-67
2022/01/04 01:28:25;;;;;;;21.02;8.95;;;8.30;99.90;;;;;;5058283;28;20049;-67
2022/01/04 01:30:50;;;;;;;22.10;9.52;;;8.20;99.90;;;;;;5064986;28;20028;-67
2022/01/04 01:33:16;;;;;;;24.02;9.93;;;8.30;99.90;;;;;;5060232;28;20040;-67
2022/01/04 01:35:43;;;;;;;21.48;8.75;;;8.20;99.90;;;;;;5062826;28;20044;-67
2022/01/04 01:38:09;;;;;;;28.92;9.18;;;8.30;99.90;;;;;;5062050;28;20040;-67
2022/01/04 01:40:37;;;;;;;26.35;9.38;;;8.10;99.90;;;;;;5060018;28;20040;-67
2022/01/04 01:43:03;;;;;;;19.58;9.57;;;8.10;99.90;;;;;;5062134;28;20719;-68
2022/01/04 01:45:29;;;;;;;27.13;10.50;;;8.10;99.90;;;;;;5064323;28;20036;-67
2022/01/04 01:47:55;;;;;;;26.02;10.77;;;8.10;99.90;;;;;;5059053;28;20067;-67
2022/01/04 01:50:21;;;;;;;20.90;9.98;;;8.00;99.90;;;;;;5059200;28;20099;-67
2022/01/04 01:52:49;;;;;;;32.08;10.20;;;8.00;99.90;;;;;;5063071;28;20052;-67
2022/01/04 01:55:17;;;;;;;26.75;10.50;;;8.00;99.90;;;;;;5058254;28;20064;-67
2022/01/04 01:57:44;;;;;;;28.70;11.38;;;8.00;99.90;;;;;;5058725;28;20053;-67
2022/01/04 02:00:11;;;;;;;27.33;11.30;;;8.00;99.90;;;;;;5059210;28;20040;-68
2022/01/04 02:02:37;;;;;;;25.98;11.25;;;7.90;99.90;;;;;;5058716;28;20040;-67
2022/01/04 02:05:04;;;;;;;28.92;11.85;;;7.90;99.90;;;;;;5058137;28;20033;-67
2022/01/04 02:07:30;;;;;;;28.73;12.20;;;7.90;99.90;;;;;;5074392;28;20036;-67
2022/01/04 02:10:04;;;;;;;26.58;12.60;;;7.80;99.90;;;;;;5060566;28;20495;-67
2022/01/04 02:12:39;;;;;;;27.73;11.75;;;7.90;99.90;;;;;;5063818;28;20047;-66
2022/01/04 02:15:08;;;;;;;26.92;11.40;;;7.80;99.90;;;;;;5064500;28;20586;-65
2022/01/04 02:17:34;;;;;;;31.20;12.35;;;7.70;99.90;;;;;;5064038;28;20040;-65
2022/01/04 02:20:00;;;;;;;24.38;12.95;;;7.70;99.90;;;;;;5064967;28;20428;-65
2022/01/04 02:22:28;;;;;;;31.70;12.63;;;7.70;99.90;;;;;;5064955;28;20037;-66
2022/01/04 02:24:54;;;;;;;27.45;12.23;;;7.70;99.90;;;;;;5067918;28;20032;-66
2022/01/04 02:27:21;;;;;;;27.45;13.20;;;7.70;99.90;;;;;;5063282;28;20040;-65
2022/01/04 02:29:47;;;;;;;29.55;13.43;;;7.70;99.90;;;;;;5066419;28;20099;-65
2022/01/04 02:32:13;;;;;;;30.50;12.63;;;7.70;99.90;;;;;;5065846;28;20047;-65
2022/01/04 02:34:40;;;;;;;32.75;12.77;;;7.70;99.90;;;;;;5064940;28;20036;-66
2022/01/04 02:37:07;;;;;;;31.67;12.63;;;7.70;99.90;;;;;;5065862;28;20056;-66
2022/01/04 02:39:36;;;;;;;31.40;13.35;;;7.70;99.90;;;;;;5061099;28;20041;-66
2022/01/04 02:42:03;;;;;;;27.33;13.02;;;7.80;99.90;;;;;;5063377;28;20040;-66
2022/01/04 02:44:29;;;;;;;32.30;14.23;;;7.80;99.90;;;;;;5066183;28;20507;-66
2022/01/04 02:46:54;;;;;;;30.73;12.80;;;7.80;99.90;;;;;;5065504;28;20028;-66
2022/01/04 02:49:20;;;;;;;31.27;13.90;;;7.70;99.90;;;;;;5065900;28;20032;-66
2022/01/04 02:51:46;;;;;;;30.55;13.60;;;7.80;99.90;;;;;;5042677;28;20048;-66
2022/01/04 02:54:11;;;;;;;26.02;13.18;;;7.80;99.90;;;;;;5070171;28;20083;-66
2022/01/04 02:56:37;;;;;;;26.52;12.40;;;7.80;99.90;;;;;;5061711;28;20331;-66
2022/01/04 02:59:04;;;;;;;32.38;13.55;;;7.80;99.90;;;;;;5070659;28;20048;-66
2022/01/04 03:01:33;;;;;;;26.02;13.93;;;7.70;99.90;;;;;;5064204;28;20044;-66
2022/01/04 03:03:59;;;;;;;30.50;12.82;;;7.80;99.90;;;;;;5063814;28;20774;-66
2022/01/04 03:06:25;;;;;;;28.63;13.73;;;7.80;99.90;;;;;;5044321;28;20040;-66
2022/01/04 03:08:51;;;;;;;29.30;14.00;;;7.80;99.90;;;;;;5064374;28;20032;-66
2022/01/04 03:11:17;;;;;;;31.83;13.13;;;7.70;99.90;;;;;;5066475;28;20036;-66
2022/01/04 03:13:42;;;;;;;34.90;13.68;;;7.70;99.90;;;;;;5062396;28;20063;-66
2022/01/04 03:16:08;;;;;;;32.00;14.20;;;7.80;99.90;;;;;;5071508;28;20045;-66
2022/01/04 03:18:35;;;;;;;31.90;14.18;;;7.70;99.90;;;;;;5062775;28;20556;-66
2022/01/04 03:21:01;;;;;;;29.30;14.15;;;7.70;99.90;;;;;;5065504;28;20496;-66
2022/01/04 03:23:26;;;;;;;38.28;15.40;;;7.80;99.90;;;;;;5062635;28;20037;-66
2022/01/04 03:25:52;;;;;;;27.35;13.60;;;7.80;99.90;;;;;;5065504;28;20542;-66
2022/01/04 03:28:20;;;;;;;32.90;15.65;;;7.80;99.90;;;;;;5063263;28;20028;-67
2022/01/04 03:30:46;;;;;;;34.70;15.38;;;7.80;99.90;;;;;;5063690;28;20040;-67
2022/01/04 03:33:12;;;;;;;32.78;15.20;;;7.90;99.90;;;;;;5064890;28;20051;-67
2022/01/04 03:35:38;;;;;;;32.13;15.65;;;7.90;99.90;;;;;;5062929;28;20112;-67
2022/01/04 03:38:03;;;;;;;31.38;14.15;;;8.00;99.90;;;;;;5057776;28;20045;-67
2022/01/04 03:40:29;;;;;;;30.35;15.15;;;7.90;99.90;;;;;;5060975;28;20558;-66
2022/01/04 03:42:55;;;;;;;30.73;14.65;;;8.00;99.90;;;;;;5064167;28;20036;-66
2022/01/04 03:45:21;;;;;;;32.45;15.27;;;8.00;99.90;;;;;;5061655;28;20045;-66
2022/01/04 03:47:46;;;;;;;27.88;14.93;;;8.00;99.90;;;;;;5060694;28;20044;-67
2022/01/04 03:50:12;;;;;;;27.90;14.65;;;8.00;99.90;;;;;;5066489;28;20460;-66
2022/01/04 03:52:38;;;;;;;28.40;14.90;;;8.10;99.90;;;;;;5061900;28;20036;-67
2022/01/04 03:55:06;;;;;;;33.92;14.65;;;8.10;99.90;;;;;;5065807;28;20354;-67
2022/01/04 03:57:32;;;;;;;28.27;14.55;;;8.10;99.90;;;;;;5061042;28;20040;-66
2022/01/04 03:59:58;;;;;;;32.88;14.98;;;8.10;99.90;;;;;;5055182;28;20056;-66
2022/01/04 04:02:24;;;;;;;31.80;14.02;;;8.10;99.90;;;;;;5061511;28;20044;-66
2022/01/04 04:04:50;;;;;;;26.38;14.18;;;8.20;99.90;;;;;;5063318;28;20039;-66
2022/01/04 04:07:15;;;;;;;33.13;14.48;;;8.10;99.90;;;;;;5065393;28;20091;-66
2022/01/04 04:09:41;;;;;;;31.05;14.52;;;8.20;99.90;;;;;;5056232;28;20257;-66
2022/01/04 04:12:07;;;;;;;25.70;14.80;;;8.20;99.90;;;;;;5065926;28;20094;-66
2022/01/04 04:14:33;;;;;;;34.28;14.93;;;8.20;99.90;;;;;;5063472;28;20490;-66
2022/01/04 04:16:59;;;;;;;32.53;15.60;;;8.20;99.90;;;;;;5061441;28;20044;-66
2022/01/04 04:19:25;;;;;;;25.27;13.15;;;8.30;99.90;;;;;;5062318;28;20040;-66
2022/01/04 04:21:50;;;;;;;26.88;14.77;;;8.20;99.90;;;;;;5060590;28;20135;-66
2022/01/04 04:24:16;;;;;;;28.50;13.95;;;8.20;99.90;;;;;;5059795;28;20094;-67
2022/01/04 04:26:42;;;;;;;25.70;14.70;;;8.20;99.90;;;;;;5061096;28;20041;-67
2022/01/04 04:29:09;;;;;;;31.63;14.93;;;8.30;99.90;;;;;;5062314;28;20037;-67
2022/01/04 04:31:35;;;;;;;28.58;15.20;;;8.30;99.90;;;;;;5057191;28;20118;-66
2022/01/04 04:34:00;;;;;;;23.02;14.70;;;8.30;99.90;;;;;;5060431;28;20476;-66
2022/01/04 04:36:27;;;;;;;24.35;14.18;;;8.30;99.90;;;;;;5057647;28;20036;-66
2022/01/04 04:38:53;;;;;;;27.58;14.52;;;8.30;99.90;;;;;;5061349;28;20047;-66
2022/01/04 04:41:18;;;;;;;31.25;14.85;;;8.30;99.90;;;;;;5059041;28;20032;-67
2022/01/04 04:43:45;;;;;;;31.70;16.15;;;8.30;99.90;;;;;;5057787;28;20036;-67
2022/01/04 04:46:11;;;;;;;30.40;16.33;;;8.30;99.90;;;;;;5062127;28;20396;-67
2022/01/04 04:48:37;;;;;;;35.60;15.57;;;8.30;99.90;;;;;;5058949;28;20033;-67
2022/01/04 04:51:03;;;;;;;26.95;16.00;;;8.20;99.90;;;;;;5056379;28;20045;-67
2022/01/04 04:53:29;;;;;;;33.10;16.33;;;8.30;99.90;;;;;;5061156;28;20059;-67
2022/01/04 04:55:54;;;;;;;33.45;16.10;;;8.30;99.90;;;;;;5060851;28;20170;-67
2022/01/04 04:58:20;;;;;;;32.78;16.60;;;8.30;99.90;;;;;;5053356;28;20044;-67
2022/01/04 05:00:46;;;;;;;29.98;15.18;;;8.30;99.90;;;;;;5062927;28;20075;-67
2022/01/04 05:03:12;;;;;;;24.20;14.52;;;8.20;99.90;;;;;;5060963;28;20076;-67
2022/01/04 05:05:37;;;;;;;30.48;14.98;;;8.20;99.90;;;;;;5055855;28;20450;-67
2022/01/04 05:08:03;;;;;;;25.42;14.40;;;8.20;99.90;;;;;;5058388;28;20037;-67
2022/01/04 05:10:29;;;;;;;26.08;14.13;;;8.20;99.90;;;;;;5055436;28;20392;-67
2022/01/04 05:12:54;;;;;;;21.13;13.30;;;8.10;99.90;;;;;;5060669;28;20041;-67
2022/01/04 05:15:20;;;;;;;25.40;14.65;;;8.10;99.90;;;;;;5058801;28;20397;-67
2022/01/04 05:17:46;;;;;;;24.02;14.38;;;8.10;99.90;;;;;;5057714;28;20090;-67
2022/01/04 05:20:11;;;;;;;26.17;14.13;;;8.20;99.90;;;;;;5059884;28;20045;-67
2022/01/04 05:22:37;;;;;;;26.98;14.65;;;8.10;99.90;;;;;;5056416;28;20290;-67
2022/01/04 05:25:03;;;;;;;26.02;16.17;;;8.10;99.90;;;;;;5059947;28;20093;-67
2022/01/04 05:27:29;;;;;;;27.67;15.82;;;8.10;99.90;;;;;;5061192;28;20060;-67
2022/01/04 05:29:54;;;;;;;28.45;16.45;;;8.10;99.90;;;;;;5055458;28;20040;-67
2022/01/04 05:32:20;;;;;;;23.85;14.18;;;8.10;99.90;;;;;;5058385;28;20043;-67
2022/01/04 05:34:48;;;;;;;29.30;16.50;;;8.10;99.90;;;;;;5053566;28;20151;-67
2022/01/04 05:37:14;;;;;;;26.40;14.80;;;8.00;99.90;;;;;;5055028;28;20071;-67
2022/01/04 05:39:40;;;;;;;29.83;15.93;;;8.00;99.90;;;;;;5054298;28;20417;-67
2022/01/04 05:42:08;;;;;;;29.95;15.77;;;8.00;99.90;;;;;;5060860;28;20083;-67
2022/01/04 05:44:34;;;;;;;29.77;15.93;;;8.00;99.90;;;;;;5063628;28;20104;-67
2022/01/04 05:47:00;;;;;;;29.30;17.02;;;8.00;99.90;;;;;;5057894;28;20446;-67
2022/01/04 05:49:25;;;;;;;30.65;16.33;;;8.00;99.90;;;;;;5062607;28;20441;-67
2022/01/04 05:51:51;;;;;;;32.20;18.30;;;8.10;99.90;;;;;;5057636;28;20645;-67
2022/01/04 05:54:17;;;;;;;32.25;17.42;;;8.10;99.90;;;;;;5065237;28;20108;-67
2022/01/04 05:56:43;;;;;;;26.92;15.85;;;8.00;99.90;;;;;;5060763;28;20114;-67
2022/01/04 05:59:08;;;;;;;30.83;17.75;;;8.00;99.90;;;;;;5059366;28;20542;-67
2022/01/04 06:01:34;;;;;;;30.50;17.23;;;8.10;99.90;;;;;;5057813;28;20029;-67
2022/01/04 06:04:00;;;;;;;29.58;16.50;;;8.10;99.90;;;;;;5060839;28;20032;-67
2022/01/04 06:06:25;;;;;;;28.67;17.13;;;8.10;99.90;;;;;;5059547;28;20123;-67
2022/01/04 06:08:51;;;;;;;26.55;16.90;;;8.10;99.90;;;;;;5060974;28;20028;-67
2022/01/04 06:11:55;;;;;;;27.27;18.02;;;8.10;99.90;;;;;;5064050;28;20112;-67
2022/01/04 06:17:07;;;;;;;31.08;18.00;;;8.10;99.90;;;;;;5061844;28;20048;-67
2022/01/04 06:19:33;;;;;;;26.98;16.58;;;8.10;99.90;;;;;;5062059;28;20052;-67
2022/01/04 06:21:58;;;;;;;32.60;18.08;;;8.00;99.90;;;;;;5060547;28;20131;-67
2022/01/04 06:24:24;;;;;;;28.55;18.58;;;8.00;99.90;;;;;;5064830;28;20039;-67
2022/01/04 06:26:52;;;;;;;31.35;19.13;;;8.00;99.90;;;;;;5060704;28;20061;-67
2022/01/04 06:29:20;;;;;;;30.27;17.90;;;8.00;99.90;;;;;;5060435;28;20080;-66
2022/01/04 06:31:45;;;;;;;32.17;18.33;;;8.00;99.90;;;;;;5054081;28;20045;-66
2022/01/04 06:34:12;;;;;;;37.15;21.10;;;8.00;99.90;;;;;;5062838;28;20411;-67
2022/01/04 06:36:38;;;;;;;34.75;20.42;;;8.00;99.90;;;;;;5057998;28;20041;-67
2022/01/04 06:39:05;;;;;;;32.58;19.67;;;8.00;99.90;;;;;;5064710;28;20055;-67
2022/01/04 06:41:30;;;;;;;35.88;20.33;;;8.00;99.90;;;;;;5062185;28;20051;-67
2022/01/04 06:43:56;;;;;;;38.95;21.67;;;8.00;99.90;;;;;;5063257;28;20052;-67
2022/01/04 06:46:23;;;;;;;34.28;20.65;;;7.90;99.90;;;;;;5063075;28;20088;-67
2022/01/04 06:48:49;;;;;;;32.72;21.50;;;8.00;99.90;;;;;;5062769;28;20170;-67
2022/01/04 06:51:14;;;;;;;39.38;22.90;;;8.00;99.90;;;;;;5067999;28;20055;-67
2022/01/04 06:53:40;;;;;;;36.90;22.40;;;8.00;99.90;;;;;;5058029;28;20646;-66
2022/01/04 06:56:06;;;;;;;34.58;22.80;;;8.00;99.90;;;;;;5061338;28;20113;-66
2022/01/04 06:58:32;;;;;;;38.33;22.88;;;8.00;99.90;;;;;;5059742;28;20040;-67
2022/01/04 07:00:57;;;;;;;44.33;23.67;;;8.00;99.90;;;;;;5040499;28;20045;-66
2022/01/04 07:03:23;;;;;;;45.20;23.88;;;8.00;99.90;;;;;;5056739;28;20131;-66
2022/01/04 07:05:49;;;;;;;36.72;23.75;;;8.00;99.90;;;;;;5062119;28;20040;-66
2022/01/04 07:08:15;;;;;;;43.65;23.42;;;7.90;99.90;;;;;;5056595;28;20396;-67
2022/01/04 07:10:40;;;;;;;39.72;24.75;;;8.00;99.90;;;;;;5064023;28;20124;-66
2022/01/04 07:13:06;;;;;;;39.08;25.25;;;8.00;99.90;;;;;;5057962;28;20087;-66
2022/01/04 07:15:32;;;;;;;39.28;23.80;;;8.00;99.90;;;;;;5061034;28;20036;-65
2022/01/04 07:17:58;;;;;;;39.65;25.67;;;8.00;99.90;;;;;;5063290;28;21088;-65
2022/01/04 07:20:23;;;;;;;44.00;23.45;;;8.00;99.90;;;;;;5063072;28;20141;-65
2022/01/04 07:22:49;;;;;;;41.92;24.13;;;8.00;99.90;;;;;;5059355;28;20044;-65
2022/01/04 07:25:15;;;;;;;36.75;23.67;;;7.90;99.90;;;;;;5056584;28;20131;-65
2022/01/04 07:27:41;;;;;;;44.28;27.55;;;7.90;99.90;;;;;;5060706;28;20052;-65
2022/01/04 07:30:07;;;;;;;43.53;25.20;;;7.90;99.90;;;;;;5059642;28;20068;-65
2022/01/04 07:32:33;;;;;;;43.00;23.92;;;7.90;99.90;;;;;;5057655;28;20448;-65
2022/01/04 07:34:59;;;;;;;46.03;25.98;;;7.90;99.90;;;;;;5060499;28;20124;-65
2022/01/04 07:37:24;;;;;;;45.75;27.30;;;7.90;99.90;;;;;;5060917;28;20412;-65
2022/01/04 07:39:51;;;;;;;54.95;27.67;;;7.90;99.90;;;;;;5052988;28;20040;-65
2022/01/04 07:42:17;;;;;;;44.50;27.25;;;7.90;99.90;;;;;;5062912;28;20487;-65
2022/01/04 07:44:43;;;;;;;52.35;27.88;;;7.80;99.90;;;;;;5056545;28;20065;-65
2022/01/04 07:47:09;;;;;;;38.00;23.95;;;7.90;99.90;;;;;;5055095;28;20043;-65
2022/01/04 07:49:34;;;;;;;47.13;26.88;;;7.90;99.90;;;;;;5061942;28;20041;-66
2022/01/04 07:52:00;;;;;;;39.17;25.20;;;8.00;99.90;;;;;;5062241;28;20397;-65
2022/01/04 07:54:26;;;;;;;38.03;25.88;;;8.00;99.90;;;;;;5022519;28;1154333;-65
2022/01/04 07:56:53;;;;;;;38.65;24.08;;;8.00;99.90;;;;;;5057129;28;20912;-65
2022/01/04 07:59:20;;;;;;;45.83;25.05;;;8.00;99.90;;;;;;5057161;28;20048;-65
2022/01/04 08:01:46;;;;;;;35.00;23.63;;;8.00;99.90;;;;;;5065474;28;20091;-65
2022/01/04 08:04:11;;;;;;;35.90;24.20;;;7.90;99.90;;;;;;5059360;28;20068;-65
2022/01/04 08:06:39;;;;;;;37.95;23.83;;;7.90;99.90;;;;;;5060879;28;20051;-65
2022/01/04 08:09:04;;;;;;;32.03;21.73;;;7.90;99.90;;;;;;5059981;28;20466;-65
2022/01/04 08:11:30;;;;;;;40.65;23.23;;;7.80;99.90;;;;;;5055836;28;20033;-65
2022/01/04 08:13:56;;;;;;;33.80;22.42;;;7.80;99.90;;;;;;5059415;28;20045;-65
2022/01/04 08:16:22;;;;;;;32.85;22.60;;;7.80;99.90;;;;;;5060838;28;20041;-65
2022/01/04 08:18:48;;;;;;;39.53;25.13;;;7.80;99.90;;;;;;5057890;28;20037;-65
2022/01/04 08:21:13;;;;;;;40.05;25.40;;;7.80;99.90;;;;;;5063845;28;20041;-65
2022/01/04 08:23:39;;;;;;;44.40;24.95;;;7.80;99.90;;;;;;5059726;28;20104;-65
2022/01/04 08:26:05;;;;;;;41.90;25.25;;;7.80;99.90;;;;;;5057912;28;20389;-65
2022/01/04 08:28:30;;;;;;;38.85;23.35;;;7.70;99.90;;;;;;5066035;28;20097;-66
2022/01/04 08:30:57;;;;;;;43.30;25.30;;;7.80;99.90;;;;;;5056718;28;20086;-66
2022/01/04 08:33:23;;;;;;;36.92;24.48;;;7.80;99.90;;;;;;5050989;28;20040;-66
2022/01/04 08:35:49;;;;;;;39.03;24.75;;;7.80;99.90;;;;;;5059955;28;20391;-66
2022/01/04 08:38:15;;;;;;;42.90;25.55;;;7.80;99.90;;;;;;5058145;28;20041;-66
2022/01/04 08:40:41;;;;;;;37.28;25.52;;;7.80;99.90;;;;;;5058446;28;20087;-65
2022/01/04 08:43:07;;;;;;;43.88;26.80;;;7.80;99.90;;;;;;5063535;28;20056;-65
2022/01/04 08:45:34;;;;;;;42.38;24.80;;;7.70;99.90;;;;;;5063879;28;20032;-65
2022/01/04 08:48:00;;;;;;;40.78;24.35;;;7.70;99.90;;;;;;5059024;28;20063;-65
2022/01/04 08:50:27;;;;;;;42.90;24.15;;;7.70;99.90;;;;;;5063661;28;20040;-65
2022/01/04 08:52:55;;;;;;;35.05;23.98;;;7.80;99.90;;;;;;5055161;28;20061;-65
2022/01/04 08:55:23;;;;;;;39.72;23.73;;;7.80;99.90;;;;;;5062367;28;20436;-66
2022/01/04 08:57:49;;;;;;;37.70;23.02;;;7.80;99.90;;;;;;5058600;28;20148;-66
2022/01/04 09:00:16;;;;;;;40.88;23.30;;;7.80;99.90;;;;;;5064352;28;20037;-66
2022/01/04 09:02:43;;;;;;;44.08;22.95;;;7.80;99.90;;;;;;5061906;28;20033;-66
2022/01/04 09:05:10;;;;;;;34.65;21.75;;;7.80;99.90;;;;;;5055641;28;20531;-66
2022/01/04 09:07:36;;;;;;;27.58;17.23;;;7.80;99.90;;;;;;5056598;28;20485;-66
2022/01/04 09:10:04;;;;;;;22.92;13.00;;;7.80;99.90;;;;;;5063108;28;20037;-67
2022/01/04 09:12:43;;;;;;;19.27;9.30;;;7.70;99.90;;;;;;5053251;28;20037;-67
2022/01/04 09:20:39;;;;;;;19.70;7.72;;;7.60;99.90;;;;;;5054564;28;20288;-66
2022/01/04 09:23:05;;;;;;;19.35;10.00;;;7.50;99.90;;;;;;5053290;28;20106;-66
2022/01/04 09:25:30;;;;;;;23.30;12.57;;;7.50;99.90;;;;;;5060828;28;20095;-66
2022/01/04 09:27:57;;;;;;;29.05;15.73;;;7.50;99.90;;;;;;5057148;28;20041;-66
2022/01/04 09:30:23;;;;;;;29.58;16.80;;;7.50;99.90;;;;;;5059825;28;20060;-66
2022/01/04 09:32:50;;;;;;;29.30;14.77;;;7.60;99.90;;;;;;5053655;28;20458;-66
2022/01/04 09:35:16;;;;;;;25.77;14.57;;;7.60;99.90;;;;;;5060551;28;20049;-66
2022/01/04 09:37:42;;;;;;;25.52;15.07;;;7.60;99.90;;;;;;5057921;28;20044;-66
2022/01/04 09:40:09;;;;;;;22.25;13.77;;;7.70;99.90;;;;;;5059934;28;20040;-65
2022/01/04 09:42:37;;;;;;;23.02;12.95;;;7.70;99.90;;;;;;5054767;28;20136;-65
2022/01/04 09:45:04;;;;;;;27.38;13.82;;;7.70;99.90;;;;;;5058584;28;20332;-65
2022/01/04 09:47:30;;;;;;;27.10;14.68;;;7.80;99.90;;;;;;5057030;28;20069;-65
2022/01/04 09:49:58;;;;;;;26.65;14.55;;;7.70;99.90;;;;;;5056459;28;20597;-65
2022/01/04 09:52:24;;;;;;;29.02;11.95;;;7.80;99.90;;;;;;5054679;28;20052;-65
2022/01/04 09:54:53;;;;;;;20.17;9.57;;;7.80;99.90;;;;;;5057950;28;20045;-65
2022/01/04 09:57:19;;;;;;;17.10;8.63;;;7.70;99.90;;;;;;5054100;28;20608;-65
2022/01/04 09:59:45;;;;;;;14.50;8.18;;;7.70;99.90;;;;;;5054113;28;20039;-66
2022/01/04 10:02:17;;;;;;;19.95;7.97;;;7.80;99.90;;;;;;5066797;28;20115;-65
2022/01/04 10:04:43;;;;;;;16.80;7.82;;;7.80;99.90;;;;;;5060889;28;20412;-65
2022/01/04 10:07:10;;;;;;;19.60;8.10;;;7.70;99.90;;;;;;5060001;28;20329;-65
2022/01/04 10:09:42;;;;;;;18.00;8.57;;;7.80;99.90;;;;;;5060390;28;20123;-65
2022/01/04 10:12:10;;;;;;;20.98;8.65;;;7.70;99.90;;;;;;5057109;28;20373;-66
2022/01/04 10:14:41;;;;;;;19.45;8.50;;;7.80;99.90;;;;;;5054674;28;20053;-65
2022/01/04 10:17:14;;;;;;;18.20;8.20;;;7.80;99.90;;;;;;5062078;28;20036;-65
2022/01/04 10:19:51;;;;;;;16.40;7.60;;;7.80;99.90;;;;;;5054901;28;20106;-65
2022/01/04 10:22:27;;;;;;;12.90;5.75;;;7.80;99.90;;;;;;5066818;28;20032;-65
2022/01/04 10:25:02;;;;;;;35.08;21.98;;;7.70;99.90;;;;;;5062143;28;20128;-65
2022/01/04 10:27:32;;;;;;;12.50;3.60;;;7.60;99.90;;;;;;5062166;28;20036;-65
2022/01/04 10:30:14;;;;;;;11.90;2.75;;;7.50;99.90;;;;;;5054292;28;20038;-64
2022/01/04 10:32:44;;;;;;;13.38;2.25;;;7.50;99.90;;;;;;5063116;28;20043;-64
2022/01/04 10:35:10;;;;;;;8.65;1.42;;;7.40;99.90;;;;;;5062118;28;20322;-64
2022/01/04 10:37:40;;;;;;;13.30;2.10;;;7.30;99.90;;;;;;5060437;28;20124;-64
2022/01/04 10:40:08;;;;;;;8.13;2.05;;;7.20;99.90;;;;;;5064492;28;20092;-64
2022/01/04 10:42:33;;;;;;;6.13;1.20;;;7.20;99.90;;;;;;5060081;28;20052;-64
2022/01/04 10:45:29;;;;;;;6.35;1.38;;;7.10;99.90;;;;;;5068271;28;20036;-64
2022/01/04 10:48:09;;;;;;;5.57;1.02;;;7.00;99.90;;;;;;5060901;28;20357;-64
2022/01/04 10:50:36;;;;;;;5.60;1.02;;;7.00;99.90;;;;;;5065811;28;20048;-64
2022/01/04 10:53:03;;;;;;;5.68;1.27;;;7.00;99.90;;;;;;5066943;28;20079;-64
2022/01/04 10:55:35;;;;;;;6.47;1.20;;;6.90;99.90;;;;;;5064029;28;20041;-64
2022/01/04 10:58:01;;;;;;;7.93;0.90;;;7.00;99.90;;;;;;5060332;28;20094;-64
2022/01/04 11:00:28;;;;;;;6.90;0.82;;;6.90;99.90;;;;;;5068807;28;20044;-64
2022/01/04 11:02:54;;;;;;;4.95;0.70;;;6.90;99.90;;;;;;5063671;28;20489;-64
2022/01/04 11:05:21;;;;;;;6.10;0.65;;;6.80;99.90;;;;;;5065634;28;20045;-64
2022/01/04 11:08:17;;;;;;;3.30;0.50;;;6.80;99.90;;;;;;5066567;28;20049;-65
2022/01/04 11:10:44;;;;;;;4.68;0.75;;;6.80;99.90;;;;;;5049548;28;20134;-65
2022/01/04 11:13:10;;;;;;;9.05;0.95;;;6.70;99.90;;;;;;5057420;28;20093;-65
2022/01/04 11:15:36;;;;;;;7.25;0.73;;;6.70;99.90;;;;;;5063198;28;20511;-64
2022/01/04 11:18:02;;;;;;;3.95;0.93;;;6.60;99.90;;;;;;5064372;28;20044;-65
2022/01/04 11:20:27;;;;;;;5.45;0.95;;;6.60;99.90;;;;;;5060884;28;20036;-65
2022/01/04 11:22:56;;;;;;;5.45;0.68;;;6.50;99.90;;;;;;5061654;28;20056;-65
2022/01/04 11:25:23;;;;;;;2.97;0.77;;;6.50;99.90;;;;;;5061344;28;20043;-65
2022/01/04 11:27:50;;;;;;;6.03;1.00;;;6.40;99.90;;;;;;5057018;28;20127;-65
2022/01/04 11:30:33;;;;;;;4.00;0.90;;;6.50;99.90;;;;;;5060691;28;20147;-65
2022/01/04 11:33:06;;;;;;;3.90;0.73;;;6.50;99.90;;;;;;5056366;28;20056;-65
2022/01/04 11:35:33;;;;;;;3.38;0.47;;;6.50;99.90;;;;;;5058831;28;20041;-65
2022/01/04 11:38:00;;;;;;;5.10;0.55;;;6.30;99.90;;;;;;5066430;28;20165;-65
2022/01/04 11:40:31;;;;;;;1.65;0.32;;;6.20;99.90;;;;;;5061735;28;20056;-65
2022/01/04 11:42:57;;;;;;;2.38;0.60;;;6.10;99.90;;;;;;5065121;28;20044;-65
2022/01/04 11:45:47;;;;;;;3.78;0.40;;;6.00;99.90;;;;;;5069682;28;20060;-65
2022/01/04 11:48:46;;;;;;;9.98;4.20;;;6.00;99.90;;;;;;5058016;28;20040;-65
2022/01/04 11:51:30;;;;;;;3.95;0.55;;;6.00;99.90;;;;;;5016554;28;20542;-65
2022/01/04 11:54:14;;;;;;;4.47;0.40;;;6.00;99.90;;;;;;5059010;28;20094;-66
2022/01/04 11:57:06;;;;;;;5.85;0.40;;;6.00;99.90;;;;;;5060717;28;20037;-66
2022/01/04 11:59:43;;;;;;;3.67;0.40;;;6.00;99.90;;;;;;5058058;28;20040;-66
2022/01/04 12:02:31;;;;;;;3.88;0.30;;;6.00;99.90;;;;;;5055201;28;20075;-66
2022/01/04 12:05:23;;;;;;;5.55;0.70;;;6.00;99.90;;;;;;5063880;28;20044;-66
2022/01/04 12:07:59;;;;;;;1.23;0.20;;;6.00;99.90;;;;;;5042279;28;20356;-66
2022/01/04 12:10:25;;;;;;;38.35;26.10;;;6.00;99.90;;;;;;5056824;28;20040;-66
2022/01/04 12:13:10;;;;;;;4.30;1.35;;;6.00;99.90;;;;;;5063763;28;20040;-66
2022/01/04 12:15:36;;;;;;;2.08;0.30;;;5.90;99.90;;;;;;5057390;28;20498;-66
2022/01/04 12:18:08;;;;;;;4.55;0.32;;;5.80;99.90;;;;;;5064915;28;20127;-66
2022/01/04 12:20:46;;;;;;;1.90;0.30;;;5.60;99.90;;;;;;5056952;28;20048;-66
2022/01/04 12:23:31;;;;;;;2.80;0.40;;;5.50;99.90;;;;;;5060026;28;20493;-66
2022/01/04 12:26:02;;;;;;;6.85;0.40;;;5.50;99.90;;;;;;5062451;28;20040;-65
2022/01/04 12:28:29;;;;;;;2.50;0.20;;;5.40;99.90;;;;;;5064321;28;20037;-65
2022/01/04 12:31:16;;;;;;;2.65;0.20;;;5.60;99.90;;;;;;5063025;28;20389;-65
2022/01/04 12:33:51;;;;;;;1.75;0.40;;;5.50;99.90;;;;;;5056314;28;20048;-65
2022/01/04 12:36:22;;;;;;;;;;;5.70;99.90;;;;;;5061029;28;20036;-66
2022/01/04 12:38:49;;;;;;;3.17;0.30;;;5.80;99.90;;;;;;5065914;28;20096;-66
2022/01/04 12:41:16;;;;;;;1.83;0.20;;;5.80;99.90;;;;;;5060749;28;20053;-66
2022/01/04 12:43:42;;;;;;;4.93;0.70;;;5.80;99.90;;;;;;5074650;28;20493;-66
2022/01/04 12:46:08;;;;;;;4.30;0.50;;;5.80;99.90;;;;;;5063043;28;20544;-66
2022/01/04 12:48:52;;;;;;;72.10;53.88;;;5.80;99.90;;;;;;5062426;28;20080;-66
2022/01/04 12:51:29;;;;;;;3.55;0.77;;;5.70;99.90;;;;;;5059614;28;20047;-66
2022/01/04 12:54:00;;;;;;;2.28;0.93;;;5.70;99.90;;;;;;5059327;28;20049;-66
2022/01/04 12:56:27;;;;;;;8.55;1.70;;;5.70;99.90;;;;;;5065931;28;20603;-66